Time;durP1;ratioP1;P1;durP2;ratioP2;P2;SDS_P1;SDS_P2;PMS_P1;PMS_P2;Temp;Humidity;BMP_temperature;BMP_pressure;BME280_temperature;BME280_humidity;BME280_pressure;Samples;Min_cycle;Max_cycle;Signal;HPM_P1;HPM_P2
2022/01/17 00:01:13;;;;;;;26.35;13.75;;;;;;;3.14;58.39;100454.31;7737950;32;40817;-75
2022/01/17 00:05:29;;;;;;;26.37;12.75;;;;;;;3.01;58.86;100466.75;7738019;32;37896;-77
2022/01/17 00:09:46;;;;;;;27.05;14.10;;;;;;;2.93;59.12;100455.34;7737954;32;37338;-76
2022/01/17 00:14:04;;;;;;;24.67;13.68;;;;;;;2.78;59.46;100455.53;7724192;32;39269;-75
2022/01/17 00:18:28;;;;;;;26.85;14.43;;;;;;;3.09;58.43;100456.81;7738009;32;39843;-75
2022/01/17 00:22:47;;;;;;;28.12;14.25;;;;;;;3.46;57.37;100446.44;7737844;32;38670;-75
2022/01/17 00:27:04;;;;;;;25.67;14.07;;;;;;;2.75;58.90;100456.75;7724271;32;38045;-74
2022/01/17 00:31:20;;;;;;;26.02;12.68;;;;;;;2.99;58.93;100452.66;7723940;32;39345;-75
2022/01/17 00:35:36;;;;;;;27.13;12.77;;;;;;;3.10;57.86;100439.59;7737700;32;40776;-77
2022/01/17 00:39:56;;;;;;;29.83;14.25;;;;;;;3.52;56.83;100440.22;7736789;32;38649;-77
2022/01/17 00:44:15;;;;;;;25.02;13.75;;;;;;;3.04;58.07;100440.44;7737516;32;37739;-75
2022/01/17 00:48:31;;;;;;;26.83;13.50;;;;;;;3.24;58.17;100449.34;7711377;32;39378;-76
2022/01/17 00:52:48;;;;;;;26.87;13.13;;;;;;;3.18;57.84;100451.00;7737367;32;40731;-75
2022/01/17 00:57:04;;;;;;;29.33;13.05;;;;;;;2.91;58.49;100462.78;7737262;32;38844;-78
2022/01/17 01:01:21;;;;;;;29.45;14.68;;;;;;;3.35;57.60;100447.91;7737021;32;37767;-75
2022/01/17 01:05:38;;;;;;;25.40;13.52;;;;;;;2.73;59.14;100456.12;7737076;32;39355;-76
2022/01/17 01:10:10;;;;;;;23.60;13.15;;;;;;;3.28;57.76;100465.97;7736803;32;39738;-78
2022/01/17 01:14:26;;;;;;;23.20;12.93;;;;;;;2.91;58.97;100450.16;7736799;32;38565;-77
2022/01/17 01:27:55;;;;;;;25.23;13.50;;;;;;;3.01;58.53;100429.03;7736631;32;39970;-75
2022/01/17 01:32:13;;;;;;;25.70;13.93;;;;;;;3.00;58.78;100410.37;7736353;32;38713;-77
2022/01/17 01:36:31;;;;;;;27.62;14.02;;;;;;;3.42;57.69;100399.41;7711688;32;356118;-75
2022/01/17 01:40:47;;;;;;;29.48;13.25;;;;;;;3.05;59.12;100385.53;7736318;32;39365;-75
2022/01/17 01:45:07;;;;;;;24.30;13.15;;;;;;;3.62;57.17;100378.59;7736092;32;39911;-75
2022/01/17 01:49:24;;;;;;;27.65;13.27;;;;;;;3.74;56.54;100379.59;7735920;32;38802;-77
2022/01/17 01:53:40;;;;;;;31.70;14.68;;;;;;;3.31;58.15;100380.13;7738505;32;37958;-75
2022/01/17 01:57:56;;;;;;;28.30;14.90;;;;;;;2.96;59.14;100393.81;7739576;32;40086;-77
2022/01/17 02:02:13;;;;;;;26.42;14.50;;;;;;;3.31;58.44;100374.72;7711459;32;40665;-75
2022/01/17 02:06:32;;;;;;;27.15;13.60;;;;;;;3.13;59.14;100371.84;7712549;32;38781;-77
2022/01/17 02:10:48;;;;;;;24.08;12.27;;;;;;;3.72;57.19;100370.06;7711667;32;36950;-75
2022/01/17 02:15:05;;;;;;;23.20;12.35;;;;;;;3.39;57.96;100387.16;7712716;32;39168;-75
2022/01/17 02:19:25;;;;;;;24.20;12.15;;;;;;;3.66;57.38;100390.63;7712567;32;39981;-76
2022/01/17 02:23:43;;;;;;;25.20;12.32;;;;;;;3.42;57.52;100386.72;7712489;32;38729;-74
2022/01/17 02:27:59;;;;;;;21.12;11.65;;;;;;;3.70;56.96;100370.28;7712504;32;37929;-76
2022/01/17 02:32:15;;;;;;;21.20;12.20;;;;;;;3.40;57.43;100367.25;7712496;32;39372;-76
2022/01/17 02:36:32;;;;;;;28.15;12.57;;;;;;;3.80;56.47;100350.13;7712316;32;39998;-76
2022/01/17 02:40:53;;;;;;;25.55;12.20;;;;;;;3.60;57.58;100351.00;7712203;32;37235;-77
2022/01/17 02:45:32;;;;;;;28.02;13.07;;;;;;;3.82;56.89;100358.84;7712366;32;37504;-73
2022/01/17 02:49:48;;;;;;;23.45;12.10;;;;;;;3.09;58.86;100343.69;7712251;32;39175;-75
2022/01/17 02:54:05;;;;;;;19.42;10.75;;;;;;;3.12;58.59;100324.38;7712171;32;40702;-76
2022/01/17 02:58:22;;;;;;;19.42;10.82;;;;;;;3.28;58.33;100294.28;7711972;32;37950;-76
2022/01/17 03:02:38;;;;;;;18.90;9.65;;;;;;;2.70;60.14;100303.06;7736118;32;37149;-76
2022/01/17 03:06:55;;;;;;;19.25;9.93;;;;;;;2.98;59.59;100302.88;7738914;32;39298;-74
2022/01/17 03:11:14;;;;;;;16.15;8.77;;;;;;;2.86;60.07;100306.38;7738774;32;40737;-79
2022/01/17 03:15:30;;;;;;;17.20;8.63;;;;;;;3.48;59.76;100306.88;7738862;32;38644;-77
2022/01/17 03:19:46;;;;;;;16.05;9.35;;;;;;;3.09;60.99;100312.16;7738800;32;36894;-78
2022/01/17 03:24:03;;;;;;;16.08;9.45;;;;;;;2.96;60.45;100313.00;7738655;32;39225;-75
2022/01/17 03:28:19;;;;;;;18.62;9.38;;;;;;;2.79;61.41;100325.22;7738584;32;40834;-73
2022/01/17 03:32:35;;;;;;;16.77;9.23;;;;;;;3.03;60.65;100329.16;7738531;32;37978;-76
2022/01/17 03:36:52;;;;;;;18.45;8.77;;;;;;;3.66;58.22;100336.69;7738528;32;37924;-75
2022/01/17 03:41:08;;;;;;;17.67;9.30;;;;;;;3.61;58.74;100333.81;7738469;32;40059;-76
2022/01/17 03:45:24;;;;;;;16.50;8.80;;;;;;;3.70;58.29;100332.50;7738457;32;40725;-75
2022/01/17 03:49:40;;;;;;;17.00;8.80;;;;;;;3.63;57.13;100323.62;7738254;32;37852;-77
2022/01/17 03:53:56;;;;;;;15.52;8.95;;;;;;;3.91;56.24;100311.69;7738610;32;37080;-74
2022/01/17 03:58:12;;;;;;;15.65;8.20;;;;;;;3.92;55.59;100313.34;7724596;32;39137;-76
2022/01/17 04:02:28;;;;;;;14.77;8.48;;;;;;;4.02;54.75;100308.31;7738090;32;39755;-77
2022/01/17 04:06:45;;;;;;;17.17;8.52;;;;;;;4.36;53.39;100295.41;7737966;32;37667;-75
2022/01/17 04:11:01;;;;;;;18.15;8.95;;;;;;;4.10;54.70;100307.22;7738122;32;37333;-77
2022/01/17 04:15:17;;;;;;;15.38;8.27;;;;;;;4.41;53.74;100298.28;7737023;32;39525;-77
2022/01/17 04:19:33;;;;;;;17.62;8.23;;;;;;;4.04;54.86;100314.31;7738013;32;40806;-75
2022/01/17 04:23:50;;;;;;;15.65;8.02;;;;;;;3.77;56.78;100316.31;7737917;32;37930;-76
2022/01/17 04:28:08;;;;;;;13.82;7.53;;;;;;;3.20;57.74;100306.13;7737811;32;37068;-75
2022/01/17 04:32:24;;;;;;;15.38;8.35;;;;;;;3.28;57.93;100302.38;7737791;32;40077;-75
2022/01/17 04:36:40;;;;;;;16.27;8.48;;;;;;;3.21;59.00;100296.19;7737681;32;40033;-77
2022/01/17 04:41:03;;;;;;;16.17;8.32;;;;;;;3.56;57.62;100296.69;7737578;32;38681;-74
2022/01/17 04:45:20;;;;;;;13.60;8.10;;;;;;;3.25;58.39;100296.59;7737612;32;37810;-75
2022/01/17 04:49:36;;;;;;;17.90;8.70;;;;;;;3.64;56.67;100289.38;7737408;32;39104;-77
2022/01/17 04:54:15;;;;;;;19.50;9.88;;;;;;;3.38;57.79;100292.00;7723968;32;39627;-74
2022/01/17 04:58:28;;;;;;;17.62;9.27;;;;;;;3.26;58.39;100301.78;7737179;32;37666;-75
2022/01/17 05:02:45;;;;;;;20.05;9.70;;;;;;;3.61;56.65;100277.19;7737206;32;37807;-75
2022/01/17 05:07:02;;;;;;;16.58;8.50;;;;;;;3.39;57.39;100284.72;7737133;32;40156;-75
2022/01/17 05:11:18;;;;;;;15.30;9.00;;;;;;;3.98;55.93;100288.19;7736919;32;40615;-75
2022/01/17 05:15:45;;;;;;;17.83;8.73;;;;;;;3.77;55.93;100294.72;7737008;32;37709;-77
2022/01/17 05:20:02;;;;;;;19.67;9.30;;;;;;;4.16;54.97;100284.78;7736915;32;37343;-76
2022/01/17 05:24:18;;;;;;;15.95;9.20;;;;;;;4.16;54.59;100281.22;7736737;32;39144;-77
2022/01/17 05:28:34;;;;;;;14.98;9.18;;;;;;;3.96;55.62;100279.50;7739677;32;39831;-77
2022/01/17 05:32:52;;;;;;;15.65;9.13;;;;;;;4.36;54.40;100268.44;7739857;32;37626;-74
2022/01/17 05:37:10;;;;;;;24.70;10.65;;;;;;;3.74;56.13;100282.53;7739979;32;37985;-75
2022/01/17 05:41:26;;;;;;;17.92;9.90;;;;;;;3.80;56.18;100269.22;7739893;32;39359;-75
2022/01/17 05:45:42;;;;;;;17.55;8.63;;;;;;;3.86;56.27;100265.62;7739843;32;39687;-76
2022/01/17 05:50:01;;;;;;;16.37;8.82;;;;;;;3.61;56.81;100258.31;7739656;32;37775;-77
2022/01/17 05:54:17;;;;;;;18.05;9.93;;;;;;;4.08;55.76;100253.47;7739889;32;37198;-75
2022/01/17 05:58:39;;;;;;;17.48;9.02;;;;;;;3.95;55.74;100261.66;7739799;32;39344;-76
2022/01/17 06:02:55;;;;;;;17.98;9.73;;;;;;;4.00;56.11;100252.91;7739481;32;39869;-74
2022/01/17 06:07:11;;;;;;;19.92;9.05;;;;;;;3.85;56.85;100250.53;7739698;32;37964;-75
2022/01/17 06:11:27;;;;;;;16.83;8.77;;;;;;;3.62;57.38;100259.12;7739483;32;37285;-75
2022/01/17 06:15:44;;;;;;;21.20;10.20;;;;;;;3.42;57.80;100251.13;7739383;32;39343;-76
2022/01/17 06:20:00;;;;;;;18.65;9.35;;;;;;;3.34;58.53;100255.69;7739719;32;40754;-76
2022/01/17 06:24:17;;;;;;;16.95;9.60;;;;;;;3.64;57.58;100270.50;7739275;32;38167;-76
2022/01/17 06:28:33;;;;;;;19.30;9.75;;;;;;;4.07;56.12;100265.31;7739326;32;37113;-76
2022/01/17 06:32:49;;;;;;;17.58;9.63;;;;;;;4.11;55.61;100266.53;7739270;32;40098;-77
2022/01/17 06:37:05;;;;;;;16.25;8.68;;;;;;;4.41;54.77;100254.28;7738519;32;39894;-76
2022/01/17 06:41:21;;;;;;;13.30;7.65;;;;;;;4.34;54.53;100248.94;7739116;32;38010;-74
2022/01/17 06:45:38;;;;;;;19.42;7.53;;;;;;;4.34;53.93;100227.34;7739134;32;37930;-76
2022/01/17 06:49:55;;;;;;;16.05;8.70;;;;;;;4.28;54.59;100212.84;7738971;32;39094;-75
2022/01/17 06:54:11;;;;;;;14.55;7.87;;;;;;;3.68;56.15;100218.66;7738949;32;40775;-74
2022/01/17 06:58:27;;;;;;;15.02;8.60;;;;;;;4.13;55.00;100237.44;7725104;32;37568;-75
2022/01/17 07:02:44;;;;;;;18.30;8.43;;;;;;;3.69;56.81;100228.41;7725053;32;37220;-73
2022/01/17 07:07:01;;;;;;;15.77;8.93;;;;;;;3.52;57.33;100232.66;7738942;32;39237;-75
2022/01/17 07:11:17;;;;;;;13.07;8.23;;;;;;;3.88;57.02;100205.06;7724862;32;40023;-73
2022/01/17 07:15:33;;;;;;;15.15;7.75;;;;;;;3.54;58.19;100190.94;7738689;32;38105;-73
2022/01/17 07:19:50;;;;;;;18.83;9.48;;;;;;;3.61;58.24;100198.16;7739055;32;35602;-74
2022/01/17 07:24:06;;;;;;;14.85;8.43;;;;;;;3.50;58.41;100205.91;7738654;32;40108;-72
2022/01/17 07:28:22;;;;;;;13.05;7.30;;;;;;;3.76;57.96;100218.41;7738620;32;39628;-74
2022/01/17 07:32:38;;;;;;;14.60;7.87;;;;;;;3.48;58.56;100259.19;7738457;32;38518;-74
2022/01/17 07:36:55;;;;;;;14.48;8.05;;;;;;;4.08;57.03;100293.12;7738581;32;36880;-74
2022/01/17 07:41:12;;;;;;;12.37;7.00;;;;;;;3.60;57.75;100310.56;7738421;32;39309;-73
2022/01/17 07:45:56;;;;;;;;;;;;;;;3.97;56.68;100336.97;7738797;32;40017;-74
2022/01/17 07:50:18;;;;;;;12.25;7.43;;;;;;;3.91;57.13;100349.44;7738483;32;38008;-74
2022/01/17 07:54:37;;;;;;;13.55;7.10;;;;;;;3.68;57.86;100296.03;7738514;32;36928;-74
2022/01/17 07:58:54;;;;;;;10.50;6.53;;;;;;;4.02;57.16;100278.63;7738182;32;39433;-74
2022/01/17 08:03:11;;;;;;;12.25;6.62;;;;;;;4.30;56.33;100253.13;7738277;32;39628;-74
2022/01/17 08:07:27;;;;;;;13.48;7.55;;;;;;;4.47;55.91;100259.62;7738104;32;37846;-74
2022/01/17 08:11:46;;;;;;;11.07;6.70;;;;;;;4.29;56.23;100246.91;7738241;32;36498;-72
2022/01/17 08:16:02;;;;;;;10.23;6.80;;;;;;;4.27;56.15;100227.37;7738214;32;39277;-70
2022/01/17 08:20:19;;;;;;;10.68;6.78;;;;;;;4.49;55.97;100232.41;7737958;32;40552;-71
2022/01/17 08:24:36;;;;;;;12.35;7.35;;;;;;;4.22;56.57;100212.91;7723796;32;38573;-73
2022/01/17 08:28:52;;;;;;;12.10;7.07;;;;;;;4.56;55.08;100235.06;7737772;32;37351;-70
2022/01/17 08:33:09;;;;;;;12.75;7.45;;;;;;;4.30;56.06;100235.06;7737891;32;39064;-70
2022/01/17 08:37:26;;;;;;;12.32;6.80;;;;;;;4.08;56.49;100255.34;7737730;32;40822;-70
2022/01/17 08:41:43;;;;;;;12.35;7.28;;;;;;;4.57;55.03;100242.09;7737670;32;37679;-71
2022/01/17 08:45:59;;;;;;;11.30;6.60;;;;;;;4.51;55.26;100271.63;7737571;32;37982;-72
2022/01/17 08:50:16;;;;;;;11.60;6.97;;;;;;;4.45;56.05;100269.84;7731296;32;39201;-70
2022/01/17 08:54:33;;;;;;;12.23;6.95;;;;;;;4.18;56.70;100282.69;7736723;32;39627;-71
2022/01/17 08:58:49;;;;;;;10.60;6.80;;;;;;;4.60;55.78;100276.78;7736006;32;37570;-72
2022/01/17 09:03:05;;;;;;;10.05;5.93;;;;;;;4.41;56.17;100259.69;7736080;32;36770;-71
2022/01/17 09:07:21;;;;;;;13.52;6.22;;;;;;;4.59;55.45;100218.38;7736797;32;40119;-73
2022/01/17 09:11:38;;;;;;;11.55;7.12;;;;;;;4.58;56.16;100222.16;7730833;32;40976;-71
2022/01/17 09:15:54;;;;;;;10.88;6.43;;;;;;;4.48;55.99;100193.81;7709991;32;37703;-72
2022/01/17 09:20:12;;;;;;;11.10;6.15;;;;;;;4.55;56.29;100130.78;7708824;32;38008;-72
2022/01/17 09:24:28;;;;;;;12.60;6.47;;;;;;;4.42;56.97;100143.38;7709286;32;40224;-72
2022/01/17 09:28:45;;;;;;;11.95;6.95;;;;;;;4.88;55.62;100117.75;7709369;32;40637;-72
2022/01/17 09:33:03;;;;;;;11.05;6.65;;;;;;;4.67;56.79;100091.19;7708596;32;37695;-71
2022/01/17 09:37:19;;;;;;;10.27;6.07;;;;;;;4.59;57.20;100094.16;7709399;32;36440;-72
2022/01/17 09:41:35;;;;;;;14.38;6.93;;;;;;;4.75;56.79;100071.97;7721241;32;39571;-71
2022/01/17 09:45:52;;;;;;;11.10;6.57;;;;;;;4.72;56.97;100075.13;7735762;32;38994;-71
2022/01/17 09:50:13;;;;;;;13.40;7.35;;;;;;;5.11;55.43;100051.34;7735055;32;37970;-72
2022/01/17 09:54:31;;;;;;;11.90;7.03;;;;;;;4.89;56.72;100041.03;7735153;32;38134;-74
2022/01/17 09:58:47;;;;;;;13.35;6.65;;;;;;;4.39;58.24;100062.00;7735431;32;38444;-72
2022/01/17 10:03:06;;;;;;;14.35;7.30;;;;;;;5.11;56.02;100032.44;7734758;32;40804;-72
2022/01/17 10:07:24;;;;;;;13.10;7.60;;;;;;;5.05;56.21;100033.34;7735299;32;38672;-71
2022/01/17 10:12:04;;;;;;;12.00;7.03;;;;;;;4.82;56.74;100023.28;7734334;32;36639;-71
2022/01/17 10:16:21;;;;;;;12.73;6.65;;;;;;;4.96;55.95;100013.09;7738893;32;39532;-71
2022/01/17 10:20:51;;;;;;;15.98;7.15;;;;;;;4.90;56.10;100004.06;7738980;32;39980;-73
2022/01/17 10:25:22;;;;;;;17.73;7.57;;;;;;;4.98;55.84;99997.50;7738303;32;37850;-73
2022/01/17 10:38:42;;;;;;;14.43;7.85;;;;;;;5.15;56.07;99957.94;7738517;32;40613;-73
2022/01/17 10:43:00;;;;;;;12.18;6.93;;;;;;;4.50;57.69;99951.41;7725017;32;37825;-72
2022/01/17 10:47:26;;;;;;;13.18;7.85;;;;;;;4.57;58.82;99939.66;7725423;32;38002;-72
2022/01/17 10:51:42;;;;;;;18.77;7.65;;;;;;;4.97;57.62;99914.81;7725217;32;39146;-74
2022/01/17 10:56:07;;;;;;;11.32;6.68;;;;;;;4.75;58.61;99909.91;7703368;32;39863;-73
2022/01/17 11:00:26;;;;;;;12.40;6.95;;;;;;;4.78;57.91;99908.66;7709057;32;37752;-72
2022/01/17 11:04:42;;;;;;;14.10;7.40;;;;;;;4.66;58.63;99893.22;7737442;32;37132;-73
2022/01/17 11:09:05;;;;;;;14.13;7.87;;;;;;;5.16;57.43;99892.03;7738402;32;39062;-73
2022/01/17 11:13:23;;;;;;;13.48;7.30;;;;;;;4.55;59.28;99876.97;7738703;32;40790;-71
2022/01/17 11:17:47;;;;;;;10.65;6.07;;;;;;;4.74;58.26;99856.13;7737498;32;37553;-72
2022/01/17 11:22:03;;;;;;;10.85;6.37;;;;;;;5.16;57.29;99866.88;7725884;32;37374;-72
2022/01/17 11:26:19;;;;;;;11.90;6.80;;;;;;;4.97;57.24;99842.66;7724616;32;40084;-72
2022/01/17 11:30:38;;;;;;;8.90;5.85;;;;;;;4.69;57.83;99830.66;7738565;32;39995;-74
2022/01/17 11:34:57;;;;;;;10.82;6.85;;;;;;;4.92;56.93;99871.44;7738671;32;37740;-73
2022/01/17 11:39:15;;;;;;;10.45;6.10;;;;;;;4.90;57.07;99831.16;7738628;32;37072;-72
2022/01/17 11:43:35;;;;;;;12.37;6.40;;;;;;;5.06;56.64;99840.44;7738517;32;39508;-72
2022/01/17 11:48:03;;;;;;;11.63;6.90;;;;;;;5.17;56.79;99846.91;7724793;32;40025;-71
2022/01/17 11:52:29;;;;;;;12.40;6.37;;;;;;;4.63;58.04;99850.47;7738518;32;37886;-72
2022/01/17 11:57:02;;;;;;;12.48;5.87;;;;;;;4.99;57.10;99820.81;7738401;32;37150;-74
2022/01/17 12:01:20;;;;;;;7.75;4.80;;;;;;;4.98;56.89;99811.06;7738112;32;39435;-74
2022/01/17 12:05:38;;;;;;;8.57;5.20;;;;;;;5.12;56.02;99801.66;7738383;32;40592;-73
2022/01/17 12:10:05;;;;;;;7.78;4.72;;;;;;;5.42;55.04;99800.69;7738170;32;37828;-73
2022/01/17 12:14:54;;;;;;;8.77;5.12;;;;;;;5.46;55.03;99772.13;7725470;32;38653;-72
2022/01/17 12:19:11;;;;;;;10.48;5.43;;;;;;;5.16;55.74;99786.63;7738137;32;39943;-72
2022/01/17 12:23:28;;;;;;;8.30;4.85;;;;;;;4.99;56.10;99780.28;7737968;32;40722;-72
2022/01/17 12:27:46;;;;;;;10.13;5.37;;;;;;;4.97;56.39;99777.00;7737952;32;37861;-73
2022/01/17 12:32:02;;;;;;;9.65;5.30;;;;;;;5.16;56.04;99756.91;7737171;32;37277;-74
2022/01/17 12:36:30;;;;;;;10.88;5.80;;;;;;;5.25;55.49;99757.34;7735445;32;40267;-72
2022/01/17 12:40:47;;;;;;;8.13;4.93;;;;;;;5.41;55.25;99731.44;7737815;32;40533;-71
2022/01/17 12:45:03;;;;;;;8.52;5.37;;;;;;;5.55;54.91;99724.69;7737622;32;37509;-72
2022/01/17 12:49:20;;;;;;;9.32;5.32;;;;;;;5.11;55.90;99740.56;7737520;32;37403;-71
2022/01/17 12:53:38;;;;;;;10.70;5.90;;;;;;;5.31;55.37;99767.19;7737539;32;39984;-72
2022/01/17 12:57:54;;;;;;;6.78;4.87;;;;;;;5.50;54.46;99769.75;7737417;32;41763;-73
2022/01/17 13:02:12;;;;;;;8.32;5.07;;;;;;;5.08;55.74;99808.59;7737131;32;38098;-73
2022/01/17 13:06:29;;;;;;;9.32;5.28;;;;;;;5.70;54.37;99791.00;7737372;32;37860;-73
2022/01/17 13:10:46;;;;;;;8.57;4.95;;;;;;;5.68;54.89;99761.47;7723390;32;40120;-73
2022/01/17 13:15:02;;;;;;;7.65;4.72;;;;;;;5.48;55.99;99772.69;7737004;32;39859;-71
2022/01/17 13:19:20;;;;;;;8.57;5.28;;;;;;;5.60;56.28;99781.59;7736847;32;38291;-72
2022/01/17 13:23:52;;;;;;;8.65;5.53;;;;;;;5.23;56.37;99810.84;7725677;32;37009;-72
2022/01/17 13:28:08;;;;;;;7.72;4.65;;;;;;;5.27;56.49;99788.47;7733329;32;39328;-73
2022/01/17 13:32:31;;;;;;;10.13;5.72;;;;;;;5.23;56.27;99749.47;7736068;32;40767;-71
2022/01/17 13:36:50;;;;;;;8.65;5.15;;;;;;;5.48;55.93;99751.06;7722811;32;37827;-70
2022/01/17 13:41:06;;;;;;;9.68;5.80;;;;;;;5.08;56.62;99738.34;7722370;32;37293;-72
2022/01/17 13:45:31;;;;;;;10.23;4.90;;;;;;;5.43;55.96;99737.44;7735025;32;39304;-71
2022/01/17 13:49:50;;;;;;;7.80;4.65;;;;;;;5.86;54.60;99724.47;7739511;32;41003;-71
2022/01/17 13:54:06;;;;;;;7.75;4.30;;;;;;;5.63;55.10;99729.72;7738901;32;37659;-72
2022/01/17 13:58:28;;;;;;;9.10;4.82;;;;;;;5.59;55.02;99725.88;7725451;32;37531;-71
2022/01/17 14:02:44;;;;;;;10.15;5.62;;;;;;;5.45;55.54;99705.59;7739327;32;40121;-72
2022/01/17 14:07:00;;;;;;;10.27;6.20;;;;;;;5.62;54.99;99687.53;7738736;32;39669;-73
2022/01/17 14:11:23;;;;;;;15.73;5.62;;;;;;;5.26;55.83;99646.28;7739328;32;37608;-72
2022/01/17 14:15:40;;;;;;;10.93;5.50;;;;;;;5.61;55.58;99642.63;7738370;32;38148;-71
2022/01/17 14:20:15;;;;;;;8.45;4.80;;;;;;;5.81;54.79;99657.56;7739524;32;39332;-70
2022/01/17 14:24:46;;;;;;;10.48;5.00;;;;;;;5.62;55.65;99630.75;7738953;32;40738;-70
2022/01/17 14:29:03;;;;;;;10.55;5.10;;;;;;;5.93;55.00;99650.22;7738909;32;38563;-72
2022/01/17 14:33:24;;;;;;;9.35;5.05;;;;;;;5.60;55.31;99640.97;7738955;32;37754;-71
2022/01/17 14:37:40;;;;;;;8.43;4.62;;;;;;;5.61;55.64;99647.22;7738178;32;40042;-71
2022/01/17 14:42:02;;;;;;;8.25;4.65;;;;;;;5.86;54.85;99640.59;7739389;32;39787;-71
2022/01/17 14:46:18;;;;;;;8.63;4.60;;;;;;;5.87;54.94;99644.97;7736813;32;37853;-72
2022/01/17 14:50:37;;;;;;;8.15;4.47;;;;;;;5.81;55.13;99649.44;7739100;32;37890;-72
2022/01/17 15:04:04;;;;;;;7.60;3.95;;;;;;;5.90;55.21;99675.06;7738132;32;37472;-71
2022/01/17 15:08:20;;;;;;;6.97;4.22;;;;;;;5.96;54.96;99671.38;7738130;32;37785;-70
2022/01/17 15:12:36;;;;;;;5.55;3.85;;;;;;;5.41;56.72;99690.91;7738866;32;40517;-70
2022/01/17 15:16:53;;;;;;;5.95;3.80;;;;;;;5.68;56.10;99690.34;7737856;32;39754;-70
2022/01/17 15:21:11;;;;;;;7.12;4.10;;;;;;;5.67;56.40;99685.97;7726871;32;36693;-72
2022/01/17 15:25:28;;;;;;;6.95;4.53;;;;;;;6.18;54.93;99682.31;7711474;32;37802;-71
2022/01/17 15:29:44;;;;;;;7.43;4.18;;;;;;;5.94;55.68;99700.56;7711128;32;39358;-71
2022/01/17 15:34:01;;;;;;;8.25;4.62;;;;;;;5.26;58.07;99705.75;7711408;32;40732;-70
2022/01/17 15:38:18;;;;;;;10.88;5.20;;;;;;;5.61;57.10;99722.94;7710836;32;38198;-71
2022/01/17 15:42:35;;;;;;;7.60;4.40;;;;;;;5.57;56.92;99732.56;7711724;32;38185;-70
2022/01/17 15:46:51;;;;;;;7.78;4.45;;;;;;;5.46;57.02;99736.97;7710989;32;39373;-71
2022/01/17 15:51:07;;;;;;;7.87;4.47;;;;;;;5.49;57.19;99746.50;7710816;32;39961;-70
2022/01/17 15:55:24;;;;;;;6.62;4.30;;;;;;;5.50;56.93;99742.72;7711119;32;38729;-70
2022/01/17 15:59:40;;;;;;;7.32;4.62;;;;;;;5.75;55.86;99747.81;7714987;32;37844;-70
2022/01/17 16:03:56;;;;;;;7.53;4.07;;;;;;;5.90;55.76;99756.22;7738050;32;40119;-70
2022/01/17 16:08:12;;;;;;;7.30;4.25;;;;;;;5.60;56.37;99772.66;7737807;32;39660;-70
2022/01/17 16:12:33;;;;;;;8.18;4.60;;;;;;;5.75;56.12;99780.28;7736396;32;37893;-71
2022/01/17 16:16:49;;;;;;;6.62;3.60;;;;;;;5.47;56.81;99784.59;7737463;32;37012;-71
2022/01/17 16:21:06;;;;;;;7.78;4.15;;;;;;;5.39;56.75;99784.94;7737308;32;38482;-72
2022/01/17 16:25:23;;;;;;;8.27;3.92;;;;;;;5.83;56.07;99807.78;7737532;32;40801;-73
2022/01/17 16:29:46;;;;;;;6.78;4.07;;;;;;;5.69;56.47;99832.63;7737505;32;36211;-71
2022/01/17 16:34:03;;;;;;;8.63;3.65;;;;;;;6.16;56.05;99865.81;7737533;32;36720;-70
2022/01/17 16:38:20;;;;;;;12.35;4.30;;;;;;;5.82;62.33;99927.06;7737500;32;40284;-70
2022/01/17 16:42:37;;;;;;;4.80;3.20;;;;;;;5.31;66.50;99972.66;7736995;32;40811;-71
2022/01/17 16:46:58;;;;;;;3.17;2.47;;;;;;;5.30;65.51;99970.22;7737146;32;37881;-71
2022/01/17 16:51:15;;;;;;;2.83;2.50;;;;;;;4.69;66.55;99997.25;7736716;32;36785;-70
2022/01/17 16:55:31;;;;;;;4.22;2.55;;;;;;;4.84;66.48;100032.78;7723161;32;39097;-70
2022/01/17 16:59:47;;;;;;;4.05;2.20;;;;;;;4.91;65.37;100015.69;7736657;32;39930;-69
2022/01/17 17:04:04;;;;;;;2.28;2.10;;;;;;;5.06;65.03;100043.09;7736347;32;37833;-69
2022/01/17 17:08:20;;;;;;;2.00;1.90;;;;;;;5.05;64.66;100060.38;7736737;32;38058;-71
2022/01/17 17:12:37;;;;;;;1.90;1.80;;;;;;;4.81;65.04;100071.09;7736261;32;39022;-71
2022/01/17 17:16:53;;;;;;;1.90;1.80;;;;;;;4.96;63.86;100083.34;7736598;32;40168;-72
2022/01/17 17:21:09;;;;;;;2.40;2.20;;;;;;;5.08;63.54;100092.34;7724040;32;38787;-68
2022/01/17 17:25:25;;;;;;;1.98;1.87;;;;;;;5.03;63.65;100092.19;7737594;32;37127;-70
2022/01/17 17:29:42;;;;;;;2.00;1.90;;;;;;;5.02;63.79;100087.87;7739603;32;40245;-69
2022/01/17 17:34:02;;;;;;;2.33;2.12;;;;;;;4.85;63.92;100093.88;7739183;32;40846;-70
2022/01/17 17:38:21;;;;;;;2.65;2.40;;;;;;;4.98;62.90;100109.09;7739551;32;39316;-70
2022/01/17 17:42:39;;;;;;;5.10;2.83;;;;;;;5.29;61.91;100128.03;7738895;32;37808;-71
2022/01/17 17:46:55;;;;;;;3.78;2.15;;;;;;;5.20;61.68;100154.56;7739944;32;40156;-70
2022/01/17 17:51:13;;;;;;;3.22;2.15;;;;;;;4.89;62.44;100169.91;7739033;32;40745;-70
2022/01/17 17:55:30;;;;;;;3.42;2.10;;;;;;;4.75;63.00;100185.41;7739375;32;37081;-71
2022/01/17 17:59:47;;;;;;;2.30;2.10;;;;;;;4.78;62.61;100212.00;7739210;32;37839;-72
2022/01/17 18:04:04;;;;;;;2.33;1.98;;;;;;;4.97;60.66;100222.81;7738927;32;39468;-70
2022/01/17 18:08:20;;;;;;;3.92;2.40;;;;;;;4.81;60.79;100221.50;7739264;32;40092;-71
2022/01/17 18:12:37;;;;;;;2.20;2.00;;;;;;;4.41;60.89;100249.69;7738459;32;37845;-70
2022/01/17 18:16:53;;;;;;;2.20;2.00;;;;;;;4.70;59.66;100269.81;7739531;32;36647;-70
2022/01/17 18:21:09;;;;;;;2.40;2.20;;;;;;;4.66;60.13;100294.81;7738882;32;39386;-70
2022/01/17 18:25:26;;;;;;;5.00;2.25;;;;;;;4.70;59.27;100280.63;7738951;32;39611;-71
2022/01/17 18:29:42;;;;;;;2.80;2.50;;;;;;;4.63;59.18;100292.53;7738877;32;37875;-71
2022/01/17 18:33:58;;;;;;;3.22;2.37;;;;;;;4.65;59.00;100299.34;7737672;32;37308;-72
2022/01/17 18:38:14;;;;;;;2.70;2.40;;;;;;;4.73;58.50;100298.28;7739130;32;39407;-71
2022/01/17 18:42:31;;;;;;;2.55;2.35;;;;;;;4.65;58.75;100309.34;7738480;32;39659;-74
2022/01/17 18:46:48;;;;;;;3.17;2.60;;;;;;;4.58;58.59;100320.19;7738713;32;38548;-73
2022/01/17 18:51:05;;;;;;;3.60;2.47;;;;;;;4.19;59.73;100318.59;7738574;32;37022;-71
2022/01/17 18:55:23;;;;;;;3.62;2.60;;;;;;;4.47;58.85;100321.72;7738648;32;39102;-70
2022/01/17 18:59:40;;;;;;;2.90;2.55;;;;;;;4.22;60.14;100329.78;7738423;32;40164;-72
2022/01/17 19:03:56;;;;;;;3.10;2.40;;;;;;;4.26;60.12;100359.84;7714694;32;37807;-71
2022/01/17 19:08:12;;;;;;;3.17;2.50;;;;;;;4.21;60.13;100348.87;7712014;32;36981;-70
2022/01/17 19:12:32;;;;;;;2.87;2.62;;;;;;;4.24;59.73;100356.56;7710850;32;39324;-72
2022/01/17 19:16:51;;;;;;;3.67;2.50;;;;;;;3.90;60.33;100366.69;7712012;32;39977;-72
2022/01/17 19:21:29;;;;;;;3.70;2.42;;;;;;;3.97;59.39;100382.81;7712007;32;38754;-73
2022/01/17 19:25:44;;;;;;;4.68;2.58;;;;;;;3.82;59.25;100397.41;7712005;32;37139;-73
2022/01/17 19:30:00;;;;;;;4.20;2.87;;;;;;;3.89;59.16;100408.19;7711946;32;39447;-74
2022/01/17 19:34:17;;;;;;;4.18;2.60;;;;;;;3.51;60.06;100425.09;7711783;32;39864;-73
2022/01/17 19:38:34;;;;;;;3.40;2.50;;;;;;;3.57;59.50;100443.13;7711754;32;38599;-74
2022/01/17 19:42:51;;;;;;;4.30;2.60;;;;;;;3.52;59.00;100453.72;7711838;32;36806;-72
2022/01/17 19:47:07;;;;;;;6.70;2.70;;;;;;;3.51;58.83;100463.66;7711533;32;39594;-73
2022/01/17 19:51:34;;;;;;;6.97;2.40;;;;;;;3.51;58.52;100481.69;7711554;32;39902;-72
2022/01/17 19:55:50;;;;;;;3.37;2.75;;;;;;;3.80;57.27;100476.91;7711700;32;38007;-72
2022/01/17 20:00:07;;;;;;;3.85;3.08;;;;;;;3.62;57.70;100486.44;7718442;32;37029;-73
2022/01/17 20:04:43;;;;;;;4.18;3.03;;;;;;;3.52;57.32;100499.53;7738439;32;39400;-71
2022/01/17 20:08:59;;;;;;;6.10;3.03;;;;;;;3.64;57.00;100526.69;7738301;32;40593;-72
2022/01/17 20:13:15;;;;;;;4.05;3.10;;;;;;;3.54;57.29;100538.72;7738081;32;37925;-71
2022/01/17 20:17:31;;;;;;;8.45;3.33;;;;;;;3.61;56.49;100544.12;7738233;32;37868;-71
2022/01/17 20:21:48;;;;;;;5.15;3.33;;;;;;;3.66;55.71;100554.28;7738137;32;40049;-72
2022/01/17 20:26:04;;;;;;;8.60;4.10;;;;;;;3.69;55.75;100553.84;7738030;32;40785;-73
2022/01/17 20:30:20;;;;;;;4.07;3.20;;;;;;;3.64;55.42;100562.59;7737875;32;38732;-74
2022/01/17 20:34:36;;;;;;;4.85;2.92;;;;;;;3.43;55.27;100571.69;7737870;32;37847;-74